createdAt,value
2022-09-16T00:01:12.527Z,74.61
2022-09-16T00:06:21.509Z,73.53
2022-09-16T00:11:25.715Z,74.10
2022-09-16T00:16:29.817Z,74.71
2022-09-16T00:21:34.043Z,74.49
2022-09-16T00:26:38.617Z,73.98
2022-09-16T00:31:41.412Z,73.91
2022-09-16T00:36:45.600Z,73.37
2022-09-16T00:41:48.667Z,74.59
2022-09-16T00:46:52.019Z,74.68
2022-09-16T00:52:01.858Z,74.10
2022-09-16T00:57:06.556Z,74.77
2022-09-16T01:02:12.886Z,77.20
2022-09-16T01:07:19.490Z,77.08
2022-09-16T01:12:22.301Z,75.90
2022-09-16T01:17:29.139Z,76.03
2022-09-16T01:22:47.146Z,76.73
2022-09-16T01:28:14.697Z,77.15
2022-09-16T01:33:29.215Z,76.92
2022-09-16T01:38:51.816Z,75.49
2022-09-16T01:44:01.903Z,76.85
2022-09-16T01:49:17.941Z,75.73
2022-09-16T01:54:28.430Z,75.37
2022-09-16T01:59:39.467Z,75.71
2022-09-16T02:04:48.542Z,77.53
2022-09-16T02:09:56.981Z,77.00
2022-09-16T02:15:06.532Z,77.72
2022-09-16T02:20:14.417Z,77.81
2022-09-16T02:25:20.451Z,77.91
2022-09-16T02:30:24.229Z,78.59
2022-09-16T02:35:31.570Z,79.50
2022-09-16T02:40:38.912Z,77.76
2022-09-16T02:45:49.721Z,79.07
2022-09-16T02:51:03.055Z,77.95
2022-09-16T02:56:14.542Z,78.26
2022-09-16T03:01:19.024Z,78.70
2022-09-16T03:06:25.065Z,78.25
2022-09-16T03:11:42.412Z,77.69
2022-09-16T03:16:55.206Z,78.10
2022-09-16T03:22:03.695Z,78.37
2022-09-16T03:27:11.366Z,79.04
2022-09-16T03:32:22.211Z,78.46
2022-09-16T03:37:32.088Z,78.57
2022-09-16T03:42:35.117Z,77.51
2022-09-16T03:47:37.961Z,77.88
2022-09-16T03:52:42.103Z,76.91
2022-09-16T03:57:44.941Z,78.37
2022-09-16T04:02:47.813Z,77.77
2022-09-16T04:07:52.040Z,76.68
2022-09-16T04:12:58.476Z,77.38
2022-09-16T04:18:01.430Z,77.08
2022-09-16T04:23:05.708Z,76.07
2022-09-16T04:28:08.895Z,76.17
2022-09-16T04:33:11.645Z,76.43
2022-09-16T04:38:15.587Z,77.69
2022-09-16T04:43:18.322Z,76.50
2022-09-16T04:48:20.859Z,77.36
2022-09-16T04:53:25.026Z,77.81
2022-09-16T04:58:30.045Z,76.42
2022-09-16T05:03:33.502Z,78.63
2022-09-16T05:08:37.727Z,78.32
2022-09-16T05:13:41.072Z,78.16
2022-09-16T05:18:45.276Z,76.93
2022-09-16T05:23:49.643Z,76.25
2022-09-16T05:28:52.752Z,77.30
2022-09-16T05:33:56.889Z,76.63
2022-09-16T05:44:24.045Z,78.19
2022-09-16T05:49:26.875Z,78.05
2022-09-16T05:54:31.492Z,77.42
2022-09-16T05:59:34.199Z,78.03
2022-09-16T06:04:37.033Z,78.67
2022-09-16T06:09:41.697Z,77.59
2022-09-16T06:14:44.376Z,78.36
2022-09-16T06:19:46.905Z,78.02
2022-09-16T06:24:52.324Z,79.28
2022-09-16T06:29:55.044Z,81.74
2022-09-16T06:34:57.641Z,81.99
2022-09-16T06:40:01.776Z,80.03
2022-09-16T06:45:05.195Z,80.76
2022-09-16T06:50:08.339Z,80.94
2022-09-16T06:55:12.674Z,80.58
2022-09-16T07:00:15.951Z,81.29
2022-09-16T07:05:18.772Z,80.93
2022-09-16T07:10:24.114Z,80.52
2022-09-16T07:15:26.841Z,78.46
2022-09-16T07:20:29.800Z,77.69
2022-09-16T07:25:35.969Z,76.46
2022-09-16T07:30:38.830Z,74.55
2022-09-16T07:35:41.738Z,73.12
2022-09-16T07:40:45.761Z,73.46
2022-09-16T07:45:48.551Z,71.77
2022-09-16T07:50:56.147Z,70.72
2022-09-16T07:56:05.265Z,72.17
2022-09-16T08:01:08.826Z,71.24
2022-09-16T08:06:13.802Z,68.99
2022-09-16T08:11:17.956Z,66.15
2022-09-16T08:16:22.671Z,66.34
2022-09-16T08:21:27.293Z,63.97
2022-09-16T08:26:31.534Z,63.74
2022-09-16T08:31:34.418Z,63.06
2022-09-16T08:36:37.186Z,60.77
2022-09-16T08:41:57.600Z,62.07
2022-09-16T08:47:03.203Z,61.22
2022-09-16T08:52:13.217Z,58.69
2022-09-16T08:57:21.632Z,57.50
2022-09-16T09:02:38.576Z,56.87
2022-09-16T09:07:54.529Z,52.52
2022-09-16T09:13:10.195Z,53.92
2022-09-16T09:18:31.237Z,52.76
2022-09-16T09:23:54.994Z,50.25
2022-09-16T09:29:22.104Z,48.49
2022-09-16T09:34:41.699Z,49.20
2022-09-16T09:39:57.420Z,49.70
2022-09-16T09:45:05.719Z,47.77
2022-09-16T09:50:18.573Z,48.67
2022-09-16T09:55:24.753Z,48.64
2022-09-16T10:00:29.095Z,49.12
2022-09-16T10:05:32.766Z,47.52
2022-09-16T10:10:39.894Z,48.06
2022-09-16T10:15:44.651Z,51.21
2022-09-16T10:20:59.075Z,51.25
2022-09-16T10:26:08.430Z,47.73
2022-09-16T10:31:12.882Z,43.87
2022-09-16T10:36:20.789Z,44.52
2022-09-16T10:41:25.896Z,45.54
2022-09-16T10:46:30.974Z,42.94
2022-09-16T10:51:34.681Z,44.24
2022-09-16T10:56:49.244Z,44.26
2022-09-16T11:02:05.833Z,42.66
2022-09-16T11:07:24.720Z,43.46
2022-09-16T11:12:49.764Z,41.81
2022-09-16T11:18:08.781Z,42.29
2022-09-16T11:23:26.717Z,42.44
2022-09-16T11:29:10.190Z,44.91
2022-09-16T11:34:28.887Z,40.47
2022-09-16T11:39:47.687Z,41.33
2022-09-16T11:44:56.822Z,39.59
2022-09-16T11:50:13.324Z,41.97
2022-09-16T11:55:35.393Z,41.40
2022-09-16T12:00:41.221Z,42.52
2022-09-16T12:05:53.454Z,48.82
2022-09-16T12:11:01.331Z,49.14
2022-09-16T12:16:07.459Z,52.34
2022-09-16T12:21:16.525Z,64.52
2022-09-16T12:26:22.635Z,69.99
2022-09-16T12:31:32.442Z,68.37
2022-09-16T12:36:40.281Z,60.82
2022-09-16T12:42:02.914Z,56.82
2022-09-16T12:47:51.221Z,57.16
2022-09-16T12:53:15.354Z,52.03
2022-09-16T12:59:00.565Z,50.78
2022-09-16T13:04:15.173Z,49.31
2022-09-16T13:09:24.997Z,46.09
2022-09-16T13:14:32.120Z,43.38
2022-09-16T13:19:46.383Z,47.19
2022-09-16T13:24:55.927Z,43.37
2022-09-16T13:30:31.272Z,40.43
2022-09-16T13:35:40.906Z,41.85
2022-09-16T13:40:56.841Z,41.71
2022-09-16T13:46:08.622Z,41.92
2022-09-16T13:51:18.340Z,43.00
2022-09-16T13:56:48.873Z,44.40
2022-09-16T14:02:10.464Z,45.58
2022-09-16T14:07:27.323Z,44.03
2022-09-16T14:12:42.751Z,43.10
2022-09-16T14:17:51.397Z,42.33
2022-09-16T14:23:05.874Z,40.35
2022-09-16T14:28:18.621Z,40.15
2022-09-16T14:33:25.701Z,40.93
2022-09-16T14:38:45.640Z,41.91
2022-09-16T14:43:51.420Z,42.13
2022-09-16T14:48:54.380Z,42.60
2022-09-16T14:54:12.230Z,45.90
2022-09-16T14:59:17.831Z,50.63
2022-09-16T15:04:26.324Z,62.12
2022-09-16T15:09:38.609Z,66.44
2022-09-16T15:14:42.779Z,66.03
2022-09-16T15:19:52.296Z,63.53
2022-09-16T15:24:58.459Z,62.86
2022-09-16T15:30:05.637Z,60.85
2022-09-16T15:35:23.489Z,58.19
2022-09-16T15:40:35.680Z,56.37
2022-09-16T15:45:40.468Z,53.52
2022-09-16T15:50:47.688Z,51.39
2022-09-16T15:56:01.366Z,50.14
2022-09-16T16:01:11.540Z,48.74
2022-09-16T16:06:14.694Z,48.12
2022-09-16T16:11:19.104Z,48.65
2022-09-16T16:16:23.454Z,50.25
2022-09-16T16:21:26.252Z,50.52
2022-09-16T16:26:29.368Z,51.67
2022-09-16T16:31:34.959Z,50.73
2022-09-16T16:36:37.909Z,49.60
2022-09-16T16:41:40.745Z,50.43
2022-09-16T16:46:44.995Z,52.33
2022-09-16T16:51:49.893Z,52.11
2022-09-16T16:56:52.847Z,52.72
2022-09-16T17:01:58.317Z,59.46
2022-09-16T17:07:24.763Z,71.98
2022-09-16T17:12:24.836Z,72.05
2022-09-16T17:17:31.674Z,73.04
2022-09-16T17:22:34.826Z,71.34
2022-09-16T17:27:37.570Z,69.56
2022-09-16T17:32:41.653Z,68.93
2022-09-16T17:37:44.497Z,69.40
2022-09-16T17:42:51.568Z,67.01
2022-09-16T17:47:57.719Z,66.41
2022-09-16T17:53:00.577Z,65.60
2022-09-16T17:58:03.583Z,65.37
2022-09-16T18:03:08.126Z,63.92
2022-09-16T18:08:11.048Z,63.41
2022-09-16T18:13:13.871Z,61.88
2022-09-16T18:18:19.183Z,61.96
2022-09-16T18:23:22.236Z,61.37
2022-09-16T18:28:25.260Z,60.61
2022-09-16T18:33:29.671Z,59.33
2022-09-16T18:38:33.945Z,59.37
2022-09-16T18:43:39.461Z,60.18
2022-09-16T18:48:45.382Z,60.89
2022-09-16T18:53:49.694Z,61.68
2022-09-16T18:59:17.107Z,60.59
2022-09-16T19:04:19.224Z,61.74
2022-09-16T19:09:23.971Z,66.35
2022-09-16T19:14:27.429Z,70.95
2022-09-16T19:19:31.821Z,73.84
2022-09-16T19:24:35.097Z,75.44
2022-09-16T19:29:37.901Z,77.58
2022-09-16T19:34:42.161Z,79.94
2022-09-16T19:39:44.936Z,83.28
2022-09-16T19:44:47.547Z,86.19
2022-09-16T19:49:51.773Z,86.21
2022-09-16T19:54:54.586Z,87.34
2022-09-16T19:59:57.194Z,87.31
2022-09-16T20:05:03.026Z,88.41
2022-09-16T20:10:09.075Z,87.65
2022-09-16T20:15:11.994Z,89.21
2022-09-16T20:20:16.413Z,89.29
2022-09-16T20:25:23.537Z,92.82
2022-09-16T20:30:26.572Z,92.86
2022-09-16T20:35:30.515Z,95.13
2022-09-16T20:40:33.463Z,94.03
2022-09-16T20:45:37.158Z,94.52
2022-09-16T20:50:41.319Z,94.98
2022-09-16T20:55:44.046Z,97.77
2022-09-16T21:00:48.007Z,99.58
2022-09-16T21:05:52.128Z,98.28
2022-09-16T21:11:00.349Z,97.69
2022-09-16T21:16:03.760Z,100.00
2022-09-16T21:21:09.746Z,100.00
2022-09-16T21:26:14.179Z,100.00
2022-09-16T21:31:18.420Z,97.26
2022-09-16T21:36:24.369Z,95.76
2022-09-16T21:41:27.627Z,96.03
2022-09-16T21:46:32.767Z,95.21
2022-09-16T21:51:38.759Z,94.61
2022-09-16T21:56:42.404Z,93.75
2022-09-16T22:01:45.216Z,93.88
2022-09-16T22:06:49.808Z,93.30
2022-09-16T22:11:52.607Z,94.15
2022-09-16T22:16:55.175Z,93.96
2022-09-16T22:21:59.330Z,94.72
2022-09-16T22:27:02.100Z,94.73
2022-09-16T22:32:04.705Z,94.89
2022-09-16T22:37:09.262Z,95.93
2022-09-16T22:42:12.029Z,94.59
2022-09-16T22:47:14.603Z,98.01
2022-09-16T22:52:18.707Z,97.03
2022-09-16T22:57:21.477Z,95.52
2022-09-16T23:02:24.150Z,96.78
2022-09-16T23:07:29.793Z,96.05
2022-09-16T23:12:32.629Z,95.67
2022-09-16T23:17:35.408Z,95.96
2022-09-16T23:22:40.010Z,95.35
2022-09-16T23:27:42.858Z,95.14
2022-09-16T23:32:45.969Z,96.01
2022-09-16T23:37:50.080Z,94.30
2022-09-16T23:42:52.846Z,94.16
2022-09-16T23:47:55.437Z,94.09
2022-09-16T23:52:59.932Z,95.34
2022-09-16T23:58:02.748Z,93.97
